Time;durP1;ratioP1;P1;durP2;ratioP2;P2;SDS_P1;SDS_P2;PMS_P1;PMS_P2;Temp;Humidity;BMP_temperature;BMP_pressure;BME280_temperature;BME280_humidity;BME280_pressure;Samples;Min_cycle;Max_cycle;Signal;HPM_P1;HPM_P2
2023/10/13 00:00:40;;;;;;;19.58;16.42;;;18.70;99.90;;;;;;5113801;28;20178;-75
2023/10/13 00:03:06;;;;;;;23.70;17.67;;;18.70;99.90;;;;;;5113896;28;20160;-72
2023/10/13 00:05:33;;;;;;;22.83;16.00;;;18.70;99.90;;;;;;5113120;28;20206;-73
2023/10/13 00:08:03;;;;;;;26.48;17.40;;;18.70;99.90;;;;;;5113803;28;20236;-74
2023/10/13 00:10:29;;;;;;;24.42;17.38;;;18.70;99.90;;;;;;5113601;28;20175;-74
2023/10/13 00:13:05;;;;;;;21.35;17.83;;;18.70;99.90;;;;;;5113634;28;20259;-73
2023/10/13 00:15:38;;;;;;;23.35;17.92;;;18.70;99.90;;;;;;5113762;28;20696;-73
2023/10/13 00:18:12;;;;;;;25.75;19.48;;;18.70;99.90;;;;;;5113073;28;20183;-73
2023/10/13 00:20:49;;;;;;;31.65;19.75;;;18.70;99.90;;;;;;5113187;28;20194;-74
2023/10/13 00:23:16;;;;;;;23.30;18.80;;;18.70;99.90;;;;;;5113507;28;20329;-73
2023/10/13 00:25:49;;;;;;;23.67;18.63;;;18.70;99.90;;;;;;5113351;28;20217;-73
2023/10/13 00:28:23;;;;;;;23.80;19.17;;;18.70;99.90;;;;;;5113574;28;20185;-74
2023/10/13 00:30:59;;;;;;;24.25;19.38;;;18.80;99.90;;;;;;5113462;28;20646;-73
2023/10/13 00:33:25;;;;;;;30.83;19.10;;;18.80;99.90;;;;;;5113151;28;20273;-73
2023/10/13 00:35:57;;;;;;;29.55;19.27;;;18.70;99.90;;;;;;5113599;28;20172;-73
2023/10/13 00:38:24;;;;;;;25.88;19.73;;;18.70;99.90;;;;;;5113332;28;20171;-73
2023/10/13 00:40:53;;;;;;;25.63;19.15;;;18.70;99.90;;;;;;5113606;28;20171;-73
2023/10/13 00:46:06;;;;;;;24.83;19.48;;;18.70;99.90;;;;;;5113257;28;20240;-73
2023/10/13 00:48:45;;;;;;;28.02;19.65;;;18.70;99.90;;;;;;5112868;28;20737;-73
2023/10/13 00:51:32;;;;;;;26.10;19.75;;;18.60;99.90;;;;;;5113460;28;20167;-73
2023/10/13 00:54:02;;;;;;;29.90;20.90;;;18.70;99.90;;;;;;5112163;28;20264;-73
2023/10/13 00:56:30;;;;;;;33.83;20.77;;;18.60;99.90;;;;;;5112015;28;20257;-73
2023/10/13 00:59:02;;;;;;;28.55;20.15;;;18.60;99.90;;;;;;5113315;28;20208;-74
2023/10/13 01:01:32;;;;;;;27.92;20.13;;;18.60;99.90;;;;;;5113045;28;20171;-72
2023/10/13 01:04:03;;;;;;;30.60;20.88;;;18.60;99.90;;;;;;5113154;28;20195;-73
2023/10/13 01:06:29;;;;;;;28.50;19.92;;;18.60;99.90;;;;;;5112969;28;20252;-74
2023/10/13 01:09:00;;;;;;;29.95;20.67;;;18.60;99.90;;;;;;5111753;28;20171;-73
2023/10/13 01:11:29;;;;;;;28.45;19.73;;;18.60;99.90;;;;;;5112909;28;20646;-73
2023/10/13 01:13:55;;;;;;;28.30;21.23;;;18.60;99.90;;;;;;5112762;28;20199;-73
2023/10/13 01:16:21;;;;;;;27.00;19.80;;;18.70;99.90;;;;;;5112224;28;20194;-72
2023/10/13 01:18:49;;;;;;;27.02;20.85;;;18.70;99.90;;;;;;5112390;28;20175;-73
2023/10/13 01:21:26;;;;;;;28.10;21.60;;;18.70;99.90;;;;;;5112054;28;20307;-73
2023/10/13 01:23:52;;;;;;;30.38;21.70;;;18.70;99.90;;;;;;5114872;28;20224;-73
2023/10/13 01:26:24;;;;;;;29.70;21.05;;;18.70;99.90;;;;;;5116701;28;20198;-73
2023/10/13 01:28:57;;;;;;;28.95;21.45;;;18.80;99.90;;;;;;5116509;28;20166;-72
2023/10/13 01:31:30;;;;;;;32.83;21.10;;;18.80;99.90;;;;;;5116121;28;20167;-75
2023/10/13 01:33:59;;;;;;;29.75;21.08;;;18.80;99.90;;;;;;5116495;28;20168;-72
2023/10/13 01:36:27;;;;;;;28.27;21.40;;;18.80;99.90;;;;;;5116211;27;20174;-72
2023/10/13 01:38:53;;;;;;;27.40;20.80;;;18.90;99.90;;;;;;5116397;28;20164;-74
2023/10/13 01:41:20;;;;;;;27.88;20.70;;;18.80;99.90;;;;;;5116314;28;20163;-74
2023/10/13 01:43:46;;;;;;;24.75;19.27;;;18.90;99.90;;;;;;5115097;28;20270;-73
2023/10/13 01:46:13;;;;;;;28.67;20.98;;;18.90;99.90;;;;;;5115823;28;20700;-74
2023/10/13 01:48:39;;;;;;;27.17;20.70;;;18.90;99.90;;;;;;5115998;28;20220;-74
2023/10/13 01:51:09;;;;;;;26.27;19.73;;;18.90;99.90;;;;;;5116155;28;20171;-73
2023/10/13 01:53:38;;;;;;;23.77;19.23;;;18.90;99.90;;;;;;5115971;28;20171;-74
2023/10/13 01:56:10;;;;;;;25.75;18.48;;;18.90;99.90;;;;;;5116042;28;20586;-73
2023/10/13 01:58:42;;;;;;;25.73;18.98;;;18.90;99.90;;;;;;5116149;28;20163;-73
2023/10/13 02:01:11;;;;;;;25.17;18.75;;;18.90;99.90;;;;;;5115633;28;20183;-74
2023/10/13 02:03:47;;;;;;;23.23;17.27;;;18.90;99.90;;;;;;5115884;28;20735;-74
2023/10/13 02:06:17;;;;;;;22.13;17.50;;;18.90;99.90;;;;;;5115901;28;20324;-74
2023/10/13 02:08:47;;;;;;;23.63;16.80;;;18.90;99.90;;;;;;5115922;28;20167;-74
2023/10/13 02:11:18;;;;;;;21.38;15.40;;;18.90;99.90;;;;;;5116092;28;20234;-72
2023/10/13 02:13:50;;;;;;;19.10;15.95;;;18.80;99.90;;;;;;5115923;28;20191;-73
2023/10/13 02:16:20;;;;;;;23.20;15.70;;;18.90;99.90;;;;;;5114398;28;20171;-74
2023/10/13 02:18:51;;;;;;;24.05;15.43;;;18.90;99.90;;;;;;5115892;28;20191;-73
2023/10/13 02:21:17;;;;;;;19.55;15.18;;;18.90;99.90;;;;;;5115580;27;20223;-73
2023/10/13 02:23:45;;;;;;;21.45;15.48;;;18.80;99.90;;;;;;5115819;28;20167;-72
2023/10/13 02:26:30;;;;;;;20.40;14.60;;;18.90;99.90;;;;;;5115336;28;20749;-74
2023/10/13 02:29:00;;;;;;;18.40;13.57;;;18.90;99.90;;;;;;5115352;28;20171;-74
2023/10/13 02:31:27;;;;;;;19.60;13.57;;;18.90;99.90;;;;;;5115614;28;20270;-74
2023/10/13 02:33:53;;;;;;;18.40;13.02;;;18.80;99.90;;;;;;5115020;28;20167;-73
2023/10/13 02:36:36;;;;;;;21.52;14.05;;;18.80;99.90;;;;;;5114772;28;20177;-73
2023/10/13 02:39:07;;;;;;;16.98;12.65;;;18.90;99.90;;;;;;5115267;28;20162;-73
2023/10/13 02:41:36;;;;;;;18.33;14.27;;;18.90;99.90;;;;;;5115454;28;20171;-72
2023/10/13 02:44:06;;;;;;;14.15;11.68;;;18.90;99.90;;;;;;5115169;28;20209;-73
2023/10/13 02:46:35;;;;;;;19.40;13.05;;;18.90;99.90;;;;;;5115070;28;20248;-73
2023/10/13 02:49:10;;;;;;;16.75;12.57;;;18.90;99.90;;;;;;5115078;28;20199;-73
2023/10/13 02:51:41;;;;;;;17.92;12.25;;;18.80;99.90;;;;;;5114869;28;20582;-73
2023/10/13 02:54:11;;;;;;;14.68;12.35;;;18.80;99.90;;;;;;5115023;28;20198;-72
2023/10/13 02:56:37;;;;;;;22.65;13.30;;;18.80;99.90;;;;;;5115037;28;20171;-73
2023/10/13 02:59:06;;;;;;;18.10;12.75;;;18.80;99.90;;;;;;5114407;28;20167;-72
2023/10/13 03:01:35;;;;;;;17.08;12.45;;;18.80;99.90;;;;;;5114848;28;20194;-72
2023/10/13 03:04:03;;;;;;;20.27;12.85;;;18.80;99.90;;;;;;5114728;28;20213;-73
2023/10/13 03:06:32;;;;;;;18.52;12.70;;;18.80;99.90;;;;;;5114564;28;20207;-72
2023/10/13 03:09:19;;;;;;;17.38;11.80;;;18.80;99.90;;;;;;5114642;28;20707;-73
2023/10/13 03:11:48;;;;;;;17.83;12.77;;;18.80;99.90;;;;;;5114733;28;20706;-73
2023/10/13 03:14:25;;;;;;;18.85;12.73;;;18.70;99.90;;;;;;5112883;28;20171;-73
2023/10/13 03:16:55;;;;;;;20.77;13.32;;;18.70;99.90;;;;;;5114412;28;20231;-73
2023/10/13 03:19:21;;;;;;;18.98;12.00;;;18.70;99.90;;;;;;5114186;28;20206;-73
2023/10/13 03:21:54;;;;;;;18.92;12.82;;;18.70;99.90;;;;;;5114184;28;20207;-73
2023/10/13 03:24:33;;;;;;;19.65;12.20;;;18.70;99.90;;;;;;5114382;28;20198;-73
2023/10/13 03:27:07;;;;;;;16.92;11.98;;;18.70;99.90;;;;;;5113959;28;20202;-72
2023/10/13 03:29:35;;;;;;;17.88;12.25;;;18.70;99.90;;;;;;5114042;28;20171;-73
2023/10/13 03:32:11;;;;;;;21.90;12.75;;;18.70;99.90;;;;;;5114388;28;20194;-73
2023/10/13 03:34:40;;;;;;;17.10;11.85;;;18.70;99.90;;;;;;5114061;28;20170;-72
2023/10/13 03:37:18;;;;;;;19.95;12.38;;;18.70;99.90;;;;;;5113802;28;20195;-73
2023/10/13 03:39:45;;;;;;;21.23;11.77;;;18.70;99.90;;;;;;5113882;28;20182;-71
2023/10/13 03:42:18;;;;;;;18.35;12.27;;;18.70;99.90;;;;;;5113474;28;20175;-72
2023/10/13 03:44:47;;;;;;;24.88;13.07;;;18.70;99.90;;;;;;5113954;28;20164;-72
2023/10/13 03:47:26;;;;;;;19.73;12.63;;;18.70;99.90;;;;;;5113607;28;20179;-71
2023/10/13 03:52:40;;;;;;;18.08;11.40;;;18.60;99.90;;;;;;5113781;28;20661;-72
2023/10/13 03:55:07;;;;;;;19.75;12.85;;;18.60;99.90;;;;;;5113317;28;20614;-72
2023/10/13 03:57:37;;;;;;;19.23;12.35;;;18.60;99.90;;;;;;5112534;28;20182;-72
2023/10/13 04:00:21;;;;;;;17.40;12.57;;;18.60;99.90;;;;;;5113577;28;20179;-72
2023/10/13 04:02:53;;;;;;;18.58;12.02;;;18.60;99.90;;;;;;5113597;28;20254;-72
2023/10/13 04:05:34;;;;;;;16.83;11.80;;;18.60;99.90;;;;;;5113101;28;20206;-72
2023/10/13 04:16:34;;;;;;;19.83;11.23;;;18.60;99.90;;;;;;5113361;28;20182;-73
2023/10/13 04:30:47;;;;;;;17.30;9.95;;;18.60;99.90;;;;;;5078347;28;20183;-72
2023/10/13 04:32:38;;;;;;;19.08;10.38;;;18.50;99.90;;;;;;5098651;28;20719;-74
2023/10/13 04:40:28;;;;;;;12.15;9.38;;;18.50;99.90;;;;;;5112758;28;20175;-73
2023/10/13 04:42:56;;;;;;;17.67;10.30;;;18.60;99.90;;;;;;5113025;28;20225;-72
2023/10/13 04:50:46;;;;;;;18.42;9.85;;;18.60;99.90;;;;;;5113324;28;20544;-73
2023/10/13 05:04:21;;;;;;;17.73;9.75;;;18.60;99.90;;;;;;5093364;28;20285;-74
2023/10/13 05:45:07;;;;;;;18.77;7.07;;;18.70;99.90;;;;;;5116383;28;20174;-74
2023/10/13 06:28:40;;;;;;;15.40;6.70;;;19.00;99.90;;;;;;5114948;28;20186;-74
2023/10/13 06:31:07;;;;;;;14.48;7.05;;;19.10;99.90;;;;;;5114470;28;20175;-74
2023/10/13 06:33:33;;;;;;;16.23;7.00;;;19.10;99.90;;;;;;5114435;28;20264;-73
2023/10/13 06:36:01;;;;;;;16.92;7.30;;;19.20;99.90;;;;;;5114406;28;20167;-73
2023/10/13 06:38:35;;;;;;;17.02;6.70;;;19.20;99.90;;;;;;5113849;28;20175;-74
2023/10/13 06:41:05;;;;;;;12.15;6.72;;;19.30;99.90;;;;;;5114361;28;20171;-74
2023/10/13 06:43:32;;;;;;;16.52;7.15;;;19.30;99.90;;;;;;5114355;28;20171;-74
2023/10/13 06:46:03;;;;;;;19.52;6.75;;;19.40;99.90;;;;;;5114398;28;20210;-73
2023/10/13 06:48:34;;;;;;;16.73;6.80;;;19.50;99.90;;;;;;5114888;28;20223;-75
2023/10/13 06:51:17;;;;;;;12.18;6.60;;;19.50;99.90;;;;;;5114437;28;20182;-73
2023/10/13 06:53:48;;;;;;;14.48;6.38;;;19.60;99.90;;;;;;5115145;28;20182;-74
2023/10/13 06:56:22;;;;;;;15.10;6.60;;;19.70;99.90;;;;;;5114745;28;20163;-75
2023/10/13 06:58:47;;;;;;;12.07;6.43;;;19.80;99.90;;;;;;5114190;28;20630;-74
2023/10/13 07:01:15;;;;;;;13.90;5.85;;;20.00;99.90;;;;;;5113604;28;20182;-73
2023/10/13 07:03:49;;;;;;;15.23;6.20;;;20.10;99.90;;;;;;5114478;28;20188;-74
2023/10/13 07:06:19;;;;;;;13.23;6.00;;;20.20;99.90;;;;;;5113824;27;20203;-73
2023/10/13 07:08:51;;;;;;;13.50;5.80;;;20.30;99.90;;;;;;5102767;28;20172;-74
2023/10/13 07:11:33;;;;;;;16.08;6.43;;;20.30;99.90;;;;;;5078435;28;20183;-73
2023/10/13 07:14:11;;;;;;;14.05;6.32;;;20.20;99.90;;;;;;5072512;28;20967;-74
2023/10/13 07:16:46;;;;;;;16.02;6.45;;;20.20;99.90;;;;;;5088224;28;20194;-76
2023/10/13 07:19:18;;;;;;;13.98;6.45;;;20.20;99.90;;;;;;5084542;28;20180;-74
2023/10/13 07:21:45;;;;;;;12.55;6.25;;;20.30;99.90;;;;;;5077734;28;20298;-74
2023/10/13 07:24:15;;;;;;;10.75;6.35;;;20.50;99.90;;;;;;5083468;28;20172;-74
2023/10/13 07:26:46;;;;;;;17.00;6.50;;;20.80;99.90;;;;;;5079660;28;20226;-75
2023/10/13 07:29:13;;;;;;;12.18;6.55;;;21.00;99.90;;;;;;5071357;28;20256;-74
2023/10/13 07:31:44;;;;;;;14.90;6.03;;;21.10;99.90;;;;;;5073399;28;20179;-74
2023/10/13 07:34:24;;;;;;;12.93;6.38;;;21.10;99.90;;;;;;5080773;28;20305;-74
2023/10/13 07:37:00;;;;;;;12.52;6.28;;;21.20;99.90;;;;;;5078571;28;20252;-74
2023/10/13 07:39:39;;;;;;;15.98;7.25;;;21.10;99.90;;;;;;5071383;28;20176;-75
2023/10/13 07:42:05;;;;;;;16.63;6.78;;;20.90;99.90;;;;;;5083816;28;20176;-74
2023/10/13 07:44:33;;;;;;;17.30;6.55;;;20.80;99.90;;;;;;5071673;28;20180;-74
2023/10/13 07:46:59;;;;;;;14.60;6.20;;;20.90;99.90;;;;;;5085168;28;20219;-76
2023/10/13 07:49:30;;;;;;;14.07;6.53;;;20.90;99.90;;;;;;5075266;28;20619;-74
2023/10/13 07:52:06;;;;;;;16.23;6.90;;;20.90;99.90;;;;;;5071442;28;20521;-74
2023/10/13 07:54:32;;;;;;;14.18;6.85;;;21.00;99.90;;;;;;5071982;28;20180;-74
2023/10/13 07:56:57;;;;;;;11.30;6.55;;;21.10;99.90;;;;;;5078270;28;20176;-75
2023/10/13 07:59:24;;;;;;;13.68;6.50;;;21.20;99.90;;;;;;5076249;28;20291;-76
2023/10/13 08:02:12;;;;;;;15.38;6.80;;;21.30;99.90;;;;;;5076078;28;20535;-75
2023/10/13 08:04:36;;;;;;;14.88;6.00;;;21.40;99.90;;;;;;5072161;28;20196;-74
2023/10/13 08:07:12;;;;;;;8.68;6.32;;;21.50;99.90;;;;;;5082527;28;20320;-76
2023/10/13 08:09:43;;;;;;;13.48;6.50;;;21.60;99.90;;;;;;5072522;28;20259;-76
2023/10/13 08:12:11;;;;;;;17.25;6.38;;;21.80;99.90;;;;;;5072096;28;20164;-75
2023/10/13 08:14:39;;;;;;;13.85;6.30;;;21.80;99.90;;;;;;5071752;28;20230;-74
2023/10/13 08:17:12;;;;;;;14.68;6.30;;;21.90;99.90;;;;;;5071169;28;20674;-74
2023/10/13 08:19:47;;;;;;;10.80;6.07;;;21.90;99.90;;;;;;5075972;28;20183;-76
2023/10/13 08:37:59;;;;;;;12.60;7.15;;;21.90;99.90;;;;;;5054769;28;20196;-75
2023/10/13 08:43:12;;;;;;;16.67;7.78;;;22.00;99.90;;;;;;5076622;28;20555;-76
2023/10/13 08:48:13;;;;;;;14.52;6.53;;;22.80;99.90;;;;;;5096533;28;20172;-76
2023/10/13 08:53:44;;;;;;;12.40;6.60;;;22.50;99.90;;;;;;5078235;28;20234;-76
2023/10/13 09:17:53;;;;;;;13.20;7.03;;;21.90;99.90;;;;;;5086446;28;20355;-75
2023/10/13 09:20:43;;;;;;;16.90;7.05;;;21.90;99.90;;;;;;5074781;28;20173;-76
2023/10/13 09:23:12;;;;;;;17.67;7.32;;;21.90;99.90;;;;;;5074829;28;20196;-75
2023/10/13 09:25:58;;;;;;;19.85;6.97;;;22.10;99.90;;;;;;5074771;28;20610;-76
2023/10/13 09:28:27;;;;;;;13.75;7.47;;;22.30;99.90;;;;;;5076526;28;20255;-75
2023/10/13 09:30:58;;;;;;;11.63;6.78;;;22.50;99.90;;;;;;5073949;28;20257;-76
2023/10/13 09:33:32;;;;;;;13.68;7.80;;;22.30;99.90;;;;;;5074225;28;20180;-75
2023/10/13 09:35:59;;;;;;;18.20;7.35;;;22.20;99.90;;;;;;5078369;28;20234;-76
2023/10/13 09:38:27;;;;;;;16.80;7.90;;;22.30;99.90;;;;;;5074492;28;20259;-76
2023/10/13 09:40:57;;;;;;;15.25;7.30;;;22.40;99.90;;;;;;5077791;28;20177;-74
2023/10/13 09:43:24;;;;;;;21.00;7.72;;;22.60;99.90;;;;;;5073060;28;20185;-74
2023/10/13 09:46:01;;;;;;;18.30;7.97;;;22.70;99.90;;;;;;5085528;28;20234;-75
2023/10/13 09:48:36;;;;;;;15.05;7.45;;;22.60;99.90;;;;;;5080397;28;20195;-75
2023/10/13 09:51:08;;;;;;;21.27;8.10;;;22.70;99.90;;;;;;5075274;28;20195;-76
2023/10/13 09:53:37;;;;;;;20.83;7.95;;;22.70;99.90;;;;;;5074076;28;20252;-74
2023/10/13 09:56:13;;;;;;;22.75;8.15;;;22.70;99.90;;;;;;5074343;28;20173;-75
2023/10/13 09:58:54;;;;;;;16.40;7.80;;;22.80;99.90;;;;;;5072684;28;20251;-75
2023/10/13 10:01:31;;;;;;;21.65;8.20;;;22.90;99.90;;;;;;5073282;28;20204;-74
2023/10/13 10:04:08;;;;;;;19.13;7.88;;;22.90;99.90;;;;;;5073984;28;20196;-74
2023/10/13 10:06:44;;;;;;;19.20;7.22;;;22.90;99.90;;;;;;5074859;28;20248;-76
2023/10/13 10:09:15;;;;;;;15.25;7.22;;;23.00;99.90;;;;;;5074054;28;20179;-75
2023/10/13 10:12:00;;;;;;;18.35;6.97;;;23.00;99.90;;;;;;5073238;28;20188;-74
2023/10/13 10:15:00;;;;;;;19.45;7.68;;;23.10;99.90;;;;;;5078894;28;20179;-75
2023/10/13 10:17:29;;;;;;;16.90;7.30;;;23.00;99.90;;;;;;5082139;28;20214;-75
2023/10/13 10:19:56;;;;;;;18.50;7.10;;;23.10;99.90;;;;;;5071076;28;20180;-75
2023/10/13 10:22:33;;;;;;;17.33;7.38;;;23.30;99.90;;;;;;5080516;28;20224;-75
2023/10/13 10:25:02;;;;;;;14.18;7.47;;;23.20;99.90;;;;;;5074564;28;20245;-75
2023/10/13 10:27:32;;;;;;;16.80;7.25;;;23.30;99.90;;;;;;5072486;28;20672;-74
2023/10/13 10:29:58;;;;;;;19.45;7.57;;;23.30;99.90;;;;;;5073652;28;20271;-73
2023/10/13 10:32:35;;;;;;;13.02;7.57;;;23.40;99.90;;;;;;5073803;28;20188;-74
2023/10/13 10:35:14;;;;;;;12.00;6.63;;;23.40;99.90;;;;;;5073172;28;20184;-74
2023/10/13 10:37:46;;;;;;;16.38;7.03;;;23.30;99.90;;;;;;5074156;28;20213;-74
2023/10/13 10:41:01;;;;;;;19.05;7.85;;;23.20;99.90;;;;;;5073730;28;20161;-74
2023/10/13 10:43:04;;;;;;;16.38;7.55;;;23.30;99.90;;;;;;5065518;28;20187;-75
2023/10/13 10:45:33;;;;;;;20.25;7.90;;;23.40;99.90;;;;;;5073744;28;20200;-75
2023/10/13 10:47:59;;;;;;;15.98;7.20;;;23.50;99.90;;;;;;5079302;28;20661;-74
2023/10/13 10:50:34;;;;;;;22.92;8.60;;;23.60;99.90;;;;;;5093802;28;20247;-74
2023/10/13 10:53:08;;;;;;;18.13;8.25;;;23.80;99.90;;;;;;5089807;28;20202;-74
2023/10/13 10:55:38;;;;;;;19.08;8.55;;;24.20;99.90;;;;;;5076838;28;20187;-74
2023/10/13 10:58:07;;;;;;;22.63;9.00;;;24.40;99.90;;;;;;5072400;28;20187;-75
2023/10/13 11:03:28;;;;;;;21.63;8.10;;;24.40;99.90;;;;;;5027274;28;20237;-74
2023/10/13 11:05:53;;;;;;;19.23;7.80;;;24.40;99.90;;;;;;5030583;28;20248;-74
2023/10/13 11:08:31;;;;;;;20.20;8.18;;;24.40;99.90;;;;;;5030013;28;20305;-76
2023/10/13 11:11:05;;;;;;;17.50;7.75;;;24.50;99.90;;;;;;5031479;28;20185;-75
2023/10/13 11:14:13;;;;;;;22.98;8.10;;;24.40;99.90;;;;;;5029255;28;20181;-74
2023/10/13 11:16:50;;;;;;;21.02;8.23;;;24.50;99.90;;;;;;5027242;28;20672;-75
2023/10/13 11:19:20;;;;;;;18.23;7.65;;;24.60;99.90;;;;;;5029574;28;20217;-75
2023/10/13 11:21:50;;;;;;;20.95;7.30;;;24.70;99.90;;;;;;5028943;28;20234;-74
2023/10/13 11:24:17;;;;;;;20.65;7.65;;;24.90;99.90;;;;;;5030478;28;20180;-76
2023/10/13 11:26:49;;;;;;;18.27;7.40;;;25.00;99.90;;;;;;5030137;28;20226;-74
2023/10/13 11:29:33;;;;;;;21.08;7.97;;;25.00;99.90;;;;;;5030751;28;20224;-75
2023/10/13 11:31:59;;;;;;;21.00;8.07;;;24.80;99.90;;;;;;5014020;28;20174;-74
2023/10/13 11:34:25;;;;;;;20.70;7.60;;;24.90;99.90;;;;;;5031065;28;20554;-75
2023/10/13 11:36:52;;;;;;;20.73;7.45;;;24.90;99.90;;;;;;5030989;28;20285;-74
2023/10/13 11:39:24;;;;;;;21.50;8.38;;;24.90;99.90;;;;;;5036697;28;20174;-75
2023/10/13 11:41:56;;;;;;;21.23;7.53;;;25.00;99.90;;;;;;5051427;28;20211;-73
2023/10/13 11:52:15;;;;;;;21.60;8.10;;;25.00;99.90;;;;;;5052855;28;20507;-76
2023/10/13 11:54:41;;;;;;;13.55;7.28;;;24.90;99.90;;;;;;5052105;28;20177;-74
2023/10/13 11:57:07;;;;;;;21.80;8.20;;;24.90;99.90;;;;;;5052256;28;20169;-75
2023/10/13 11:59:36;;;;;;;20.92;7.70;;;24.90;99.90;;;;;;5052227;28;20226;-75
2023/10/13 12:04:59;;;;;;;21.15;6.95;;;25.10;99.90;;;;;;5051309;28;20205;-76
2023/10/13 12:07:45;;;;;;;18.48;7.00;;;24.80;99.90;;;;;;5052421;28;20652;-76
2023/10/13 12:10:33;;;;;;;20.02;6.70;;;24.70;99.90;;;;;;5052263;28;20231;-75
2023/10/13 12:13:05;;;;;;;19.10;6.90;;;24.70;99.90;;;;;;5052335;28;20177;-75
2023/10/13 12:15:46;;;;;;;20.38;7.85;;;24.40;99.90;;;;;;5052565;28;20173;-75
2023/10/13 12:18:14;;;;;;;18.02;7.50;;;24.30;99.90;;;;;;5051415;28;20200;-75
2023/10/13 12:20:45;;;;;;;19.55;7.70;;;24.30;99.90;;;;;;5054180;28;20165;-75
2023/10/13 12:23:15;;;;;;;16.52;7.43;;;24.20;99.90;;;;;;5071913;28;20182;-76
2023/10/13 12:25:54;;;;;;;20.63;7.40;;;24.10;99.90;;;;;;5072081;28;20212;-75
2023/10/13 12:28:22;;;;;;;25.50;7.45;;;24.10;99.90;;;;;;5072195;28;20225;-75
2023/10/13 12:30:48;;;;;;;22.05;7.72;;;24.10;99.90;;;;;;5072585;28;20183;-75
2023/10/13 12:33:23;;;;;;;21.20;7.40;;;23.90;99.90;;;;;;5072392;28;20176;-75
2023/10/13 12:36:03;;;;;;;17.10;6.90;;;23.80;99.90;;;;;;5072266;28;20232;-75
2023/10/13 12:52:31;;;;;;;15.70;6.38;;;23.60;99.90;;;;;;5072100;28;20164;-73
2023/10/13 12:57:23;;;;;;;19.90;7.10;;;23.50;99.90;;;;;;5072344;28;20264;-75
2023/10/13 12:59:53;;;;;;;14.27;6.72;;;23.60;99.90;;;;;;5071386;28;20659;-74
2023/10/13 13:02:20;;;;;;;19.45;6.90;;;23.70;99.90;;;;;;5072000;28;20266;-75
2023/10/13 13:04:48;;;;;;;15.48;6.38;;;23.70;99.90;;;;;;5071948;28;20196;-75
2023/10/13 13:07:13;;;;;;;12.30;6.57;;;23.80;99.90;;;;;;5071492;28;20240;-75
2023/10/13 13:09:43;;;;;;;14.68;6.35;;;23.80;99.90;;;;;;5072120;28;20535;-75
2023/10/13 13:12:12;;;;;;;16.55;6.40;;;23.90;99.90;;;;;;5071582;28;20177;-74
2023/10/13 13:14:40;;;;;;;12.75;6.28;;;24.00;99.90;;;;;;5071716;28;20160;-76
2023/10/13 13:17:06;;;;;;;13.55;6.57;;;24.00;99.90;;;;;;5071842;28;20629;-74
2023/10/13 13:19:35;;;;;;;13.63;6.75;;;24.00;99.90;;;;;;5072359;28;20194;-74
2023/10/13 13:22:02;;;;;;;16.05;6.93;;;24.00;99.90;;;;;;5074305;28;20672;-76
2023/10/13 13:24:29;;;;;;;13.88;6.38;;;23.90;99.90;;;;;;5075251;28;20177;-74
2023/10/13 13:26:56;;;;;;;12.18;7.10;;;23.90;99.90;;;;;;5075092;28;20216;-75
2023/10/13 13:29:21;;;;;;;14.52;6.72;;;23.80;99.90;;;;;;5075202;28;20191;-74
2023/10/13 13:31:47;;;;;;;13.23;6.30;;;23.80;99.90;;;;;;5075716;28;20632;-75
2023/10/13 13:34:13;;;;;;;11.50;6.57;;;23.70;99.90;;;;;;5075166;28;20175;-74
2023/10/13 13:36:44;;;;;;;14.70;7.15;;;23.50;99.90;;;;;;5075151;28;20172;-75
2023/10/13 13:39:11;;;;;;;17.63;6.90;;;23.50;99.90;;;;;;5074756;28;20666;-75
2023/10/13 13:41:36;;;;;;;12.88;6.28;;;23.50;99.90;;;;;;5074833;28;20171;-76
2023/10/13 13:46:56;;;;;;;12.45;6.30;;;23.70;99.90;;;;;;5066738;28;20225;-76
2023/10/13 13:49:29;;;;;;;12.85;6.53;;;23.90;99.90;;;;;;5075054;28;20176;-77
2023/10/13 13:51:55;;;;;;;15.73;7.05;;;23.90;99.90;;;;;;5073923;28;20219;-75
2023/10/13 13:54:21;;;;;;;12.93;6.57;;;24.00;99.90;;;;;;5074896;28;20168;-74
2023/10/13 13:56:47;;;;;;;11.38;6.18;;;24.00;99.90;;;;;;5074768;28;20176;-76
2023/10/13 13:59:18;;;;;;;20.27;7.30;;;23.90;99.90;;;;;;5074815;28;20173;-76
2023/10/13 14:01:44;;;;;;;12.50;6.72;;;23.80;99.90;;;;;;5075044;28;20173;-75
2023/10/13 14:04:10;;;;;;;18.48;6.97;;;23.70;99.90;;;;;;5074953;28;20592;-76
2023/10/13 14:06:37;;;;;;;12.35;6.40;;;23.70;99.90;;;;;;5073900;28;20223;-76
2023/10/13 14:09:14;;;;;;;13.55;6.75;;;23.70;99.90;;;;;;5073978;28;20259;-76
2023/10/13 14:14:12;;;;;;;12.63;6.82;;;23.70;99.90;;;;;;5074335;28;20169;-75
2023/10/13 14:16:45;;;;;;;12.90;6.22;;;23.70;99.90;;;;;;5074348;28;20209;-76
2023/10/13 14:19:11;;;;;;;10.48;6.30;;;23.70;99.90;;;;;;5073941;28;20321;-76
2023/10/13 14:21:37;;;;;;;15.05;6.85;;;23.80;99.90;;;;;;5074004;28;20253;-75
2023/10/13 14:24:12;;;;;;;13.50;6.95;;;23.70;99.90;;;;;;5074563;28;20581;-75
2023/10/13 14:26:38;;;;;;;11.32;7.22;;;23.60;99.90;;;;;;5074245;28;20226;-76
2023/10/13 14:29:14;;;;;;;13.60;6.80;;;23.60;99.90;;;;;;5073715;28;20176;-75
2023/10/13 14:31:41;;;;;;;16.05;7.05;;;23.60;99.90;;;;;;5073853;28;20176;-75
2023/10/13 14:34:06;;;;;;;13.93;6.50;;;23.60;99.90;;;;;;5073743;28;20218;-75
2023/10/13 14:36:35;;;;;;;18.65;6.90;;;23.50;99.90;;;;;;5072110;28;20181;-75
2023/10/13 14:39:08;;;;;;;10.98;6.72;;;23.40;99.90;;;;;;5073938;28;20475;-76
2023/10/13 14:41:35;;;;;;;10.85;7.10;;;23.40;99.90;;;;;;5073721;28;20204;-76
2023/10/13 14:44:05;;;;;;;11.45;6.65;;;23.40;99.90;;;;;;5088970;28;20263;-76
2023/10/13 14:46:31;;;;;;;9.50;6.57;;;23.30;99.90;;;;;;5073277;28;20640;-76
2023/10/13 14:48:56;;;;;;;11.15;6.72;;;23.30;99.90;;;;;;5073361;28;20271;-74
2023/10/13 14:51:22;;;;;;;14.63;7.65;;;23.30;99.90;;;;;;5073315;28;20173;-75
2023/10/13 14:53:48;;;;;;;9.68;6.72;;;23.20;99.90;;;;;;5088144;28;20177;-76
2023/10/13 14:56:16;;;;;;;14.82;6.60;;;23.10;99.90;;;;;;5072893;28;20620;-74
2023/10/13 14:58:43;;;;;;;13.45;6.97;;;23.10;99.90;;;;;;5073538;28;20204;-77
2023/10/13 15:01:16;;;;;;;12.55;6.80;;;23.00;99.90;;;;;;5073397;28;20181;-76
2023/10/13 15:03:46;;;;;;;16.90;7.10;;;22.90;99.90;;;;;;5073114;28;20189;-75
2023/10/13 15:06:26;;;;;;;12.57;6.70;;;22.80;99.90;;;;;;5072520;28;20257;-76
2023/10/13 15:08:55;;;;;;;18.08;7.07;;;22.70;99.90;;;;;;5072904;28;20624;-75
2023/10/13 15:11:22;;;;;;;14.70;7.00;;;22.60;99.90;;;;;;5073099;28;20183;-75
2023/10/13 15:13:51;;;;;;;9.65;6.30;;;22.60;99.90;;;;;;5072892;28;20177;-75
2023/10/13 15:16:18;;;;;;;15.88;6.88;;;22.60;99.90;;;;;;5072857;28;20161;-75
2023/10/13 15:18:46;;;;;;;15.20;6.90;;;22.60;99.90;;;;;;5072694;28;20624;-74
2023/10/13 15:21:18;;;;;;;13.75;6.55;;;22.50;99.90;;;;;;5072314;28;20251;-75
2023/10/13 15:23:43;;;;;;;13.02;6.75;;;22.50;99.90;;;;;;5073344;28;20263;-75
2023/10/13 15:26:10;;;;;;;11.07;6.63;;;22.40;99.90;;;;;;5072669;28;20614;-75
2023/10/13 15:28:45;;;;;;;13.80;7.20;;;22.50;99.90;;;;;;5072789;28;20169;-76
2023/10/13 15:31:22;;;;;;;17.67;6.88;;;22.40;99.90;;;;;;5072961;28;20208;-76
2023/10/13 15:33:54;;;;;;;15.13;7.45;;;22.30;99.90;;;;;;5072482;28;20195;-74
2023/10/13 15:36:23;;;;;;;12.15;7.30;;;22.20;99.90;;;;;;5073024;28;20176;-75
2023/10/13 15:38:52;;;;;;;16.42;6.68;;;22.10;99.90;;;;;;5072763;28;20232;-75
2023/10/13 15:41:25;;;;;;;16.63;7.18;;;22.10;99.90;;;;;;5071627;28;20185;-74
2023/10/13 15:43:52;;;;;;;12.23;6.95;;;22.10;99.90;;;;;;5072780;28;20218;-75
2023/10/13 15:46:22;;;;;;;9.10;6.43;;;22.10;99.90;;;;;;5070508;28;20639;-74
2023/10/13 15:48:52;;;;;;;11.52;6.57;;;22.10;99.90;;;;;;5073202;28;20292;-74
2023/10/13 15:51:19;;;;;;;10.52;6.40;;;22.10;99.90;;;;;;5072388;28;20181;-75
2023/10/13 15:53:47;;;;;;;12.35;6.85;;;22.10;99.90;;;;;;5072840;28;20193;-76
2023/10/13 15:56:14;;;;;;;16.13;7.18;;;22.10;99.90;;;;;;5072746;28;20632;-75
2023/10/13 15:58:44;;;;;;;12.02;6.82;;;22.10;99.90;;;;;;5072695;28;20160;-75
2023/10/13 16:01:13;;;;;;;20.15;7.00;;;22.10;99.90;;;;;;5072196;28;20180;-76
2023/10/13 16:03:51;;;;;;;13.80;6.57;;;22.10;99.90;;;;;;5072499;28;20691;-74
2023/10/13 16:06:17;;;;;;;14.98;7.00;;;22.10;99.90;;;;;;5072166;28;20208;-75
2023/10/13 16:08:43;;;;;;;12.13;6.80;;;22.20;99.90;;;;;;5072211;28;20173;-75
2023/10/13 16:11:13;;;;;;;13.27;6.57;;;22.20;99.90;;;;;;5070861;28;20297;-76
2023/10/13 16:13:40;;;;;;;13.23;6.93;;;22.20;99.90;;;;;;5072346;28;20255;-75
2023/10/13 16:16:06;;;;;;;16.45;6.93;;;22.10;99.90;;;;;;5071598;28;20529;-75
2023/10/13 16:18:34;;;;;;;13.45;6.75;;;22.10;99.90;;;;;;5072439;28;20255;-75